sensor_id;sensor_type;location;lat;lon;timestamp;pressure;altitude;pressure_sealevel;temperature;humidity
64253;BME280;50592;52.958;-7.470;2022-07-11T00:02:53;101246.09;;;17.51;70.89
64253;BME280;50592;52.958;-7.470;2022-07-11T00:05:19;101246.94;;;17.51;70.65
64253;BME280;50592;52.958;-7.470;2022-07-11T00:07:45;101244.94;;;17.53;70.70
64253;BME280;50592;52.958;-7.470;2022-07-11T00:10:13;101241.25;;;17.54;70.26
64253;BME280;50592;52.958;-7.470;2022-07-11T00:12:38;101241.44;;;17.53;69.80
64253;BME280;50592;52.958;-7.470;2022-07-11T00:15:04;101233.59;;;17.51;69.32
64253;BME280;50592;52.958;-7.470;2022-07-11T00:17:30;101229.44;;;17.48;69.36
64253;BME280;50592;52.958;-7.470;2022-07-11T00:19:56;101228.75;;;17.46;69.23
64253;BME280;50592;52.958;-7.470;2022-07-11T00:22:24;101222.75;;;17.44;68.82
64253;BME280;50592;52.958;-7.470;2022-07-11T00:24:50;101220.75;;;17.30;68.84
64253;BME280;50592;52.958;-7.470;2022-07-11T00:27:16;101223.81;;;17.18;69.45
64253;BME280;50592;52.958;-7.470;2022-07-11T00:29:42;101224.47;;;17.12;69.43
64253;BME280;50592;52.958;-7.470;2022-07-11T00:32:08;101225.09;;;17.06;69.61
64253;BME280;50592;52.958;-7.470;2022-07-11T00:34:34;101230.13;;;17.01;69.64
64253;BME280;50592;52.958;-7.470;2022-07-11T00:36:59;101222.81;;;16.94;69.83
64253;BME280;50592;52.958;-7.470;2022-07-11T00:39:25;101221.09;;;16.93;69.53
64253;BME280;50592;52.958;-7.470;2022-07-11T00:41:51;101218.28;;;16.95;69.93
64253;BME280;50592;52.958;-7.470;2022-07-11T00:44:18;101223.78;;;16.93;69.55
64253;BME280;50592;52.958;-7.470;2022-07-11T00:46:43;101229.13;;;16.93;69.38
64253;BME280;50592;52.958;-7.470;2022-07-11T00:49:09;101230.13;;;16.92;69.48
64253;BME280;50592;52.958;-7.470;2022-07-11T00:51:35;101223.44;;;16.96;69.21
64253;BME280;50592;52.958;-7.470;2022-07-11T00:54:01;101217.94;;;16.98;69.11
64253;BME280;50592;52.958;-7.470;2022-07-11T00:56:29;101209.09;;;16.97;69.15
64253;BME280;50592;52.958;-7.470;2022-07-11T00:58:58;101211.78;;;16.97;69.12
64253;BME280;50592;52.958;-7.470;2022-07-11T01:01:24;101215.13;;;16.91;69.19
64253;BME280;50592;52.958;-7.470;2022-07-11T01:03:51;101218.13;;;16.88;69.08
64253;BME280;50592;52.958;-7.470;2022-07-11T01:06:17;101211.09;;;16.87;68.83
64253;BME280;50592;52.958;-7.470;2022-07-11T01:08:43;101206.25;;;16.82;68.93
64253;BME280;50592;52.958;-7.470;2022-07-11T01:11:10;101214.28;;;16.82;68.79
64253;BME280;50592;52.958;-7.470;2022-07-11T01:13:45;101204.25;;;16.76;68.85
64253;BME280;50592;52.958;-7.470;2022-07-11T01:16:15;101204.09;;;16.69;68.93
64253;BME280;50592;52.958;-7.470;2022-07-11T01:18:43;101205.94;;;16.60;69.18
64253;BME280;50592;52.958;-7.470;2022-07-11T01:21:29;101202.59;;;16.58;69.21
64253;BME280;50592;52.958;-7.470;2022-07-11T01:23:57;101190.59;;;16.54;69.09
64253;BME280;50592;52.958;-7.470;2022-07-11T01:26:24;101188.91;;;16.53;69.09
64253;BME280;50592;52.958;-7.470;2022-07-11T01:28:50;101179.06;;;16.54;69.09
64253;BME280;50592;52.958;-7.470;2022-07-11T01:31:16;101187.41;;;16.51;68.93
64253;BME280;50592;52.958;-7.470;2022-07-11T01:33:42;101184.88;;;16.41;68.98
64253;BME280;50592;52.958;-7.470;2022-07-11T01:36:08;101201.72;;;16.33;69.30
64253;BME280;50592;52.958;-7.470;2022-07-11T01:38:35;101191.03;;;16.24;69.18
64253;BME280;50592;52.958;-7.470;2022-07-11T01:41:01;101201.53;;;16.18;69.24
64253;BME280;50592;52.958;-7.470;2022-07-11T01:43:28;101200.34;;;16.04;69.30
64253;BME280;50592;52.958;-7.470;2022-07-11T01:45:54;101198.13;;;15.99;69.78
64253;BME280;50592;52.958;-7.470;2022-07-11T01:48:21;101197.75;;;15.94;70.10
64253;BME280;50592;52.958;-7.470;2022-07-11T01:50:48;101194.25;;;15.93;70.03
64253;BME280;50592;52.958;-7.470;2022-07-11T01:53:15;101194.41;;;15.92;69.97
64253;BME280;50592;52.958;-7.470;2022-07-11T01:55:41;101190.41;;;15.87;69.97
64253;BME280;50592;52.958;-7.470;2022-07-11T01:58:07;101189.53;;;15.79;69.98
64253;BME280;50592;52.958;-7.470;2022-07-11T02:00:33;101187.50;;;15.72;70.17
64253;BME280;50592;52.958;-7.470;2022-07-11T02:02:59;101191.34;;;15.70;70.30
64253;BME280;50592;52.958;-7.470;2022-07-11T02:05:25;101197.00;;;15.67;70.17
64253;BME280;50592;52.958;-7.470;2022-07-11T02:07:51;101187.78;;;15.61;70.25
64253;BME280;50592;52.958;-7.470;2022-07-11T02:10:35;101186.91;;;15.52;70.47
64253;BME280;50592;52.958;-7.470;2022-07-11T02:13:02;101180.91;;;15.50;70.55
64253;BME280;50592;52.958;-7.470;2022-07-11T02:15:29;101188.75;;;15.52;70.65
64253;BME280;50592;52.958;-7.470;2022-07-11T02:17:56;101185.09;;;15.53;70.61
64253;BME280;50592;52.958;-7.470;2022-07-11T02:20:22;101184.56;;;15.49;70.48
64253;BME280;50592;52.958;-7.470;2022-07-11T02:22:49;101189.53;;;15.44;70.74
64253;BME280;50592;52.958;-7.470;2022-07-11T02:25:15;101182.38;;;15.44;70.91
64253;BME280;50592;52.958;-7.470;2022-07-11T02:27:41;101180.03;;;15.41;70.54
64253;BME280;50592;52.958;-7.470;2022-07-11T02:30:08;101173.34;;;15.37;70.74
64253;BME280;50592;52.958;-7.470;2022-07-11T02:32:34;101172.53;;;15.36;70.57
64253;BME280;50592;52.958;-7.470;2022-07-11T02:35:00;101177.91;;;15.45;70.78
64253;BME280;50592;52.958;-7.470;2022-07-11T02:37:26;101178.56;;;15.47;70.22
64253;BME280;50592;52.958;-7.470;2022-07-11T02:39:52;101174.25;;;15.46;70.18
64253;BME280;50592;52.958;-7.470;2022-07-11T02:42:17;101174.56;;;15.43;70.27
64253;BME280;50592;52.958;-7.470;2022-07-11T02:44:46;101170.72;;;15.45;70.12
64253;BME280;50592;52.958;-7.470;2022-07-11T02:47:12;101169.06;;;15.44;69.93
64253;BME280;50592;52.958;-7.470;2022-07-11T02:49:41;101166.34;;;15.36;69.92
64253;BME280;50592;52.958;-7.470;2022-07-11T02:52:07;101169.19;;;15.34;70.13
64253;BME280;50592;52.958;-7.470;2022-07-11T02:54:33;101168.16;;;15.35;69.74
64253;BME280;50592;52.958;-7.470;2022-07-11T02:57:00;101167.31;;;15.27;69.71
64253;BME280;50592;52.958;-7.470;2022-07-11T02:59:26;101180.03;;;15.15;69.75
64253;BME280;50592;52.958;-7.470;2022-07-11T03:01:53;101175.50;;;15.07;70.24
64253;BME280;50592;52.958;-7.470;2022-07-11T03:04:19;101177.66;;;15.03;70.44
64253;BME280;50592;52.958;-7.470;2022-07-11T03:06:44;101170.47;;;15.04;70.29
64253;BME280;50592;52.958;-7.470;2022-07-11T03:09:10;101168.66;;;15.04;69.85
64253;BME280;50592;52.958;-7.470;2022-07-11T03:11:36;101166.16;;;15.03;69.80
64253;BME280;50592;52.958;-7.470;2022-07-11T03:14:02;101165.63;;;14.99;69.70
64253;BME280;50592;52.958;-7.470;2022-07-11T03:16:29;101159.25;;;14.92;69.59
64253;BME280;50592;52.958;-7.470;2022-07-11T03:18:56;101147.78;;;14.91;69.72
64253;BME280;50592;52.958;-7.470;2022-07-11T03:21:23;101148.78;;;14.90;69.59
64253;BME280;50592;52.958;-7.470;2022-07-11T03:23:49;101149.63;;;14.91;69.55
64253;BME280;50592;52.958;-7.470;2022-07-11T03:26:16;101147.56;;;14.84;69.45
64253;BME280;50592;52.958;-7.470;2022-07-11T03:28:42;101158.13;;;14.76;69.77
64253;BME280;50592;52.958;-7.470;2022-07-11T03:31:08;101153.94;;;14.73;69.95
64253;BME280;50592;52.958;-7.470;2022-07-11T03:33:33;101145.28;;;14.71;69.90
64253;BME280;50592;52.958;-7.470;2022-07-11T03:35:59;101151.88;;;14.67;69.72
64253;BME280;50592;52.958;-7.470;2022-07-11T03:38:25;101154.63;;;14.57;70.11
64253;BME280;50592;52.958;-7.470;2022-07-11T03:40:51;101155.41;;;14.49;70.11
64253;BME280;50592;52.958;-7.470;2022-07-11T03:43:17;101155.69;;;14.46;70.05
64253;BME280;50592;52.958;-7.470;2022-07-11T03:45:43;101149.25;;;14.49;69.90
64253;BME280;50592;52.958;-7.470;2022-07-11T03:48:09;101160.41;;;14.52;69.82
64253;BME280;50592;52.958;-7.470;2022-07-11T03:50:36;101150.91;;;14.50;69.61
64253;BME280;50592;52.958;-7.470;2022-07-11T03:53:02;101153.50;;;14.42;69.77
64253;BME280;50592;52.958;-7.470;2022-07-11T03:55:28;101153.66;;;14.40;69.71
64253;BME280;50592;52.958;-7.470;2022-07-11T03:57:55;101148.19;;;14.42;69.74
64253;BME280;50592;52.958;-7.470;2022-07-11T04:00:21;101146.81;;;14.37;69.66
64253;BME280;50592;52.958;-7.470;2022-07-11T04:02:47;101140.00;;;14.35;69.94
64253;BME280;50592;52.958;-7.470;2022-07-11T04:05:14;101141.66;;;14.36;70.05
64253;BME280;50592;52.958;-7.470;2022-07-11T04:07:40;101142.13;;;14.31;70.22
64253;BME280;50592;52.958;-7.470;2022-07-11T04:10:08;101142.56;;;14.26;70.19
64253;BME280;50592;52.958;-7.470;2022-07-11T04:12:34;101147.81;;;14.18;70.62
64253;BME280;50592;52.958;-7.470;2022-07-11T04:15:01;101142.41;;;14.10;71.13
64253;BME280;50592;52.958;-7.470;2022-07-11T04:17:27;101142.16;;;14.03;71.54
64253;BME280;50592;52.958;-7.470;2022-07-11T04:19:54;101144.53;;;14.06;71.45
64253;BME280;50592;52.958;-7.470;2022-07-11T04:22:20;101134.06;;;14.05;71.31
64253;BME280;50592;52.958;-7.470;2022-07-11T04:24:45;101131.66;;;14.01;71.31
64253;BME280;50592;52.958;-7.470;2022-07-11T04:27:11;101132.38;;;14.04;71.39
64253;BME280;50592;52.958;-7.470;2022-07-11T04:29:37;101134.47;;;14.00;71.35
64253;BME280;50592;52.958;-7.470;2022-07-11T04:32:03;101134.56;;;13.90;71.47
64253;BME280;50592;52.958;-7.470;2022-07-11T04:34:29;101140.78;;;13.81;71.92
64253;BME280;50592;52.958;-7.470;2022-07-11T04:36:55;101131.97;;;13.80;72.28
64253;BME280;50592;52.958;-7.470;2022-07-11T04:39:20;101129.84;;;13.84;72.46
64253;BME280;50592;52.958;-7.470;2022-07-11T04:41:46;101130.38;;;13.87;71.81
64253;BME280;50592;52.958;-7.470;2022-07-11T04:44:12;101123.09;;;13.89;71.74
64253;BME280;50592;52.958;-7.470;2022-07-11T04:46:38;101119.44;;;13.91;72.12
64253;BME280;50592;52.958;-7.470;2022-07-11T04:49:04;101116.78;;;13.91;71.85
64253;BME280;50592;52.958;-7.470;2022-07-11T04:51:30;101125.66;;;13.81;71.90
64253;BME280;50592;52.958;-7.470;2022-07-11T04:53:56;101131.47;;;13.67;72.39
64253;BME280;50592;52.958;-7.470;2022-07-11T04:56:21;101136.84;;;13.57;73.01
64253;BME280;50592;52.958;-7.470;2022-07-11T04:58:47;101132.78;;;13.52;72.94
64253;BME280;50592;52.958;-7.470;2022-07-11T05:01:13;101136.44;;;13.51;73.51
64253;BME280;50592;52.958;-7.470;2022-07-11T05:03:39;101136.69;;;13.48;73.12
64253;BME280;50592;52.958;-7.470;2022-07-11T05:06:05;101131.59;;;13.27;73.67
64253;BME280;50592;52.958;-7.470;2022-07-11T05:08:32;101135.69;;;13.11;74.46
64253;BME280;50592;52.958;-7.470;2022-07-11T05:11:02;101135.72;;;13.01;75.11
64253;BME280;50592;52.958;-7.470;2022-07-11T05:13:29;101123.88;;;12.96;75.86
64253;BME280;50592;52.958;-7.470;2022-07-11T05:15:54;101124.28;;;13.01;76.33
64253;BME280;50592;52.958;-7.470;2022-07-11T05:18:20;101124.66;;;13.16;76.41
64253;BME280;50592;52.958;-7.470;2022-07-11T05:20:46;101120.53;;;13.32;76.09
64253;BME280;50592;52.958;-7.470;2022-07-11T05:23:14;101125.53;;;13.45;76.06
64253;BME280;50592;52.958;-7.470;2022-07-11T05:25:40;101117.00;;;13.51;75.84
64253;BME280;50592;52.958;-7.470;2022-07-11T05:28:06;101117.25;;;13.48;76.14
64253;BME280;50592;52.958;-7.470;2022-07-11T05:30:32;101114.50;;;13.39;76.87
64253;BME280;50592;52.958;-7.470;2022-07-11T05:32:58;101110.91;;;13.31;77.29
64253;BME280;50592;52.958;-7.470;2022-07-11T05:35:24;101110.78;;;13.32;77.43
64253;BME280;50592;52.958;-7.470;2022-07-11T05:37:51;101108.22;;;13.50;77.57
64253;BME280;50592;52.958;-7.470;2022-07-11T05:40:17;101112.19;;;13.64;77.39
64253;BME280;50592;52.958;-7.470;2022-07-11T05:42:42;101113.81;;;13.75;77.38
64253;BME280;50592;52.958;-7.470;2022-07-11T05:45:09;101113.00;;;13.93;77.05
64253;BME280;50592;52.958;-7.470;2022-07-11T05:47:35;101110.13;;;14.05;76.73
64253;BME280;50592;52.958;-7.470;2022-07-11T05:50:01;101112.84;;;14.13;76.42
64253;BME280;50592;52.958;-7.470;2022-07-11T05:52:26;101122.06;;;14.19;76.70
64253;BME280;50592;52.958;-7.470;2022-07-11T05:54:52;101124.25;;;14.23;76.80
64253;BME280;50592;52.958;-7.470;2022-07-11T05:57:18;101115.84;;;14.28;77.11
64253;BME280;50592;52.958;-7.470;2022-07-11T05:59:44;101117.34;;;14.31;76.93
64253;BME280;50592;52.958;-7.470;2022-07-11T06:02:11;101121.53;;;14.33;76.92
64253;BME280;50592;52.958;-7.470;2022-07-11T06:04:37;101125.00;;;14.34;77.39
64253;BME280;50592;52.958;-7.470;2022-07-11T06:07:04;101126.00;;;14.33;77.47
64253;BME280;50592;52.958;-7.470;2022-07-11T06:09:30;101129.38;;;14.35;78.04
64253;BME280;50592;52.958;-7.470;2022-07-11T06:11:56;101124.41;;;14.40;78.21
64253;BME280;50592;52.958;-7.470;2022-07-11T06:14:22;101124.16;;;14.51;78.12
64253;BME280;50592;52.958;-7.470;2022-07-11T06:16:50;101116.78;;;14.63;78.30
64253;BME280;50592;52.958;-7.470;2022-07-11T06:19:16;101124.00;;;14.71;77.98
64253;BME280;50592;52.958;-7.470;2022-07-11T06:21:42;101123.25;;;14.79;77.78
64253;BME280;50592;52.958;-7.470;2022-07-11T06:24:08;101120.63;;;14.87;77.90
64253;BME280;50592;52.958;-7.470;2022-07-11T06:26:34;101120.69;;;14.96;77.74
64253;BME280;50592;52.958;-7.470;2022-07-11T06:29:00;101123.72;;;15.01;77.69
64253;BME280;50592;52.958;-7.470;2022-07-11T06:31:25;101122.94;;;15.09;77.42
64253;BME280;50592;52.958;-7.470;2022-07-11T06:33:51;101123.66;;;15.19;77.36
64253;BME280;50592;52.958;-7.470;2022-07-11T06:36:21;101117.56;;;15.27;76.98
64253;BME280;50592;52.958;-7.470;2022-07-11T06:38:50;101121.06;;;15.36;76.88
64253;BME280;50592;52.958;-7.470;2022-07-11T06:41:16;101118.97;;;15.48;76.65
64253;BME280;50592;52.958;-7.470;2022-07-11T06:43:42;101115.50;;;15.56;76.50
64253;BME280;50592;52.958;-7.470;2022-07-11T06:46:08;101111.88;;;15.65;76.37
64253;BME280;50592;52.958;-7.470;2022-07-11T06:48:34;101101.25;;;15.73;76.13
64253;BME280;50592;52.958;-7.470;2022-07-11T06:51:00;101106.41;;;15.83;75.97
64253;BME280;50592;52.958;-7.470;2022-07-11T06:53:26;101098.59;;;15.90;75.61
64253;BME280;50592;52.958;-7.470;2022-07-11T06:55:52;101102.13;;;15.99;75.59
64253;BME280;50592;52.958;-7.470;2022-07-11T06:58:18;101093.34;;;16.07;75.32
64253;BME280;50592;52.958;-7.470;2022-07-11T07:01:00;101089.69;;;16.16;75.04
64253;BME280;50592;52.958;-7.470;2022-07-11T07:03:27;101084.31;;;16.24;74.48
64253;BME280;50592;52.958;-7.470;2022-07-11T07:05:54;101086.34;;;16.31;74.16
64253;BME280;50592;52.958;-7.470;2022-07-11T07:08:25;101094.16;;;16.41;73.84
64253;BME280;50592;52.958;-7.470;2022-07-11T07:10:52;101096.69;;;16.51;73.70
64253;BME280;50592;52.958;-7.470;2022-07-11T07:13:19;101099.50;;;16.57;73.81
64253;BME280;50592;52.958;-7.470;2022-07-11T07:15:46;101103.50;;;16.61;73.68
64253;BME280;50592;52.958;-7.470;2022-07-11T07:18:13;101103.50;;;16.70;73.58
64253;BME280;50592;52.958;-7.470;2022-07-11T07:20:39;101111.81;;;16.83;73.32
64253;BME280;50592;52.958;-7.470;2022-07-11T07:23:05;101115.31;;;16.92;73.43
64253;BME280;50592;52.958;-7.470;2022-07-11T07:25:30;101114.63;;;16.90;73.89
64253;BME280;50592;52.958;-7.470;2022-07-11T07:27:56;101112.13;;;16.97;74.18
64253;BME280;50592;52.958;-7.470;2022-07-11T07:30:22;101107.78;;;17.13;74.30
64253;BME280;50592;52.958;-7.470;2022-07-11T07:32:48;101107.22;;;17.34;73.74
64253;BME280;50592;52.958;-7.470;2022-07-11T07:35:13;101113.13;;;17.61;73.33
64253;BME280;50592;52.958;-7.470;2022-07-11T07:37:39;101112.97;;;17.86;72.19
64253;BME280;50592;52.958;-7.470;2022-07-11T07:40:05;101109.00;;;18.05;71.46
64253;BME280;50592;52.958;-7.470;2022-07-11T07:42:31;101118.66;;;18.15;70.79
64253;BME280;50592;52.958;-7.470;2022-07-11T07:44:57;101109.38;;;18.26;70.34
64253;BME280;50592;52.958;-7.470;2022-07-11T07:47:23;101116.34;;;18.35;70.17
64253;BME280;50592;52.958;-7.470;2022-07-11T07:49:48;101113.97;;;18.40;69.82
64253;BME280;50592;52.958;-7.470;2022-07-11T07:52:15;101112.22;;;18.47;69.40
64253;BME280;50592;52.958;-7.470;2022-07-11T07:54:41;101106.97;;;18.54;69.20
64253;BME280;50592;52.958;-7.470;2022-07-11T07:57:08;101112.44;;;18.61;69.14
64253;BME280;50592;52.958;-7.470;2022-07-11T07:59:34;101119.09;;;18.65;68.84
64253;BME280;50592;52.958;-7.470;2022-07-11T08:02:00;101117.56;;;18.71;68.52
64253;BME280;50592;52.958;-7.470;2022-07-11T08:04:26;101118.09;;;18.81;68.65
64253;BME280;50592;52.958;-7.470;2022-07-11T08:06:52;101113.22;;;18.85;68.45
64253;BME280;50592;52.958;-7.470;2022-07-11T08:09:18;101117.66;;;18.93;68.20
64253;BME280;50592;52.958;-7.470;2022-07-11T08:11:43;101112.41;;;19.00;68.04
64253;BME280;50592;52.958;-7.470;2022-07-11T08:14:09;101100.47;;;19.02;68.02
64253;BME280;50592;52.958;-7.470;2022-07-11T08:16:35;101104.63;;;19.05;67.75
64253;BME280;50592;52.958;-7.470;2022-07-11T08:19:03;101110.78;;;19.14;67.87
64253;BME280;50592;52.958;-7.470;2022-07-11T08:21:30;101108.44;;;19.26;67.58
64253;BME280;50592;52.958;-7.470;2022-07-11T08:23:56;101112.69;;;19.35;67.44
64253;BME280;50592;52.958;-7.470;2022-07-11T08:26:22;101113.44;;;19.44;67.18
64253;BME280;50592;52.958;-7.470;2022-07-11T08:28:48;101110.00;;;19.50;66.76
64253;BME280;50592;52.958;-7.470;2022-07-11T08:31:16;101108.59;;;19.54;66.66
64253;BME280;50592;52.958;-7.470;2022-07-11T08:33:42;101105.16;;;19.61;66.26
64253;BME280;50592;52.958;-7.470;2022-07-11T08:36:08;101104.06;;;19.70;66.06
64253;BME280;50592;52.958;-7.470;2022-07-11T08:38:34;101105.59;;;19.79;66.17
64253;BME280;50592;52.958;-7.470;2022-07-11T08:41:00;101108.13;;;19.88;66.13
64253;BME280;50592;52.958;-7.470;2022-07-11T08:43:29;101114.81;;;19.92;66.12
64253;BME280;50592;52.958;-7.470;2022-07-11T08:45:56;101109.50;;;19.99;66.24
64253;BME280;50592;52.958;-7.470;2022-07-11T08:48:23;101108.59;;;20.06;66.25
64253;BME280;50592;52.958;-7.470;2022-07-11T08:50:50;101096.63;;;20.09;65.92
64253;BME280;50592;52.958;-7.470;2022-07-11T08:53:16;101093.28;;;20.07;65.46
64253;BME280;50592;52.958;-7.470;2022-07-11T08:55:42;101082.75;;;20.05;65.24
64253;BME280;50592;52.958;-7.470;2022-07-11T08:58:09;101077.84;;;20.09;65.15
64253;BME280;50592;52.958;-7.470;2022-07-11T09:00:36;101075.22;;;20.16;65.13
64253;BME280;50592;52.958;-7.470;2022-07-11T09:03:03;101068.50;;;20.27;64.75
64253;BME280;50592;52.958;-7.470;2022-07-11T09:05:31;101073.97;;;20.40;64.65
64253;BME280;50592;52.958;-7.470;2022-07-11T09:07:57;101072.97;;;20.48;64.27
64253;BME280;50592;52.958;-7.470;2022-07-11T09:10:24;101076.97;;;20.52;64.17
64253;BME280;50592;52.958;-7.470;2022-07-11T09:15:32;101043.81;;;20.67;64.32
64253;BME280;50592;52.958;-7.470;2022-07-11T09:17:59;101039.09;;;20.76;64.05
64253;BME280;50592;52.958;-7.470;2022-07-11T09:20:25;101032.19;;;20.95;64.00
64253;BME280;50592;52.958;-7.470;2022-07-11T09:22:51;101029.19;;;21.12;63.52
64253;BME280;50592;52.958;-7.470;2022-07-11T09:25:42;101021.16;;;21.25;62.54
64253;BME280;50592;52.958;-7.470;2022-07-11T09:28:08;101015.81;;;21.32;62.51
64253;BME280;50592;52.958;-7.470;2022-07-11T09:30:36;101003.16;;;21.32;62.34
64253;BME280;50592;52.958;-7.470;2022-07-11T09:33:07;100999.66;;;21.25;62.33
64253;BME280;50592;52.958;-7.470;2022-07-11T09:35:45;101005.16;;;21.03;62.42
64253;BME280;50592;52.958;-7.470;2022-07-11T09:38:13;101006.38;;;20.94;62.47
64253;BME280;50592;52.958;-7.470;2022-07-11T09:40:45;101007.53;;;20.85;62.63
64253;BME280;50592;52.958;-7.470;2022-07-11T09:43:12;101009.63;;;20.89;62.86
64253;BME280;50592;52.958;-7.470;2022-07-11T09:45:38;101001.41;;;20.98;62.59
64253;BME280;50592;52.958;-7.470;2022-07-11T09:48:10;101003.91;;;21.06;62.61
64253;BME280;50592;52.958;-7.470;2022-07-11T09:50:36;101005.19;;;21.10;62.60
64253;BME280;50592;52.958;-7.470;2022-07-11T09:55:39;100998.19;;;21.23;62.44
64253;BME280;50592;52.958;-7.470;2022-07-11T09:58:11;100995.06;;;21.19;62.02
64253;BME280;50592;52.958;-7.470;2022-07-11T10:00:40;100987.63;;;21.14;61.93
64253;BME280;50592;52.958;-7.470;2022-07-11T10:03:07;100992.16;;;21.07;61.63
64253;BME280;50592;52.958;-7.470;2022-07-11T10:05:34;100999.59;;;21.05;61.65
64253;BME280;50592;52.958;-7.470;2022-07-11T10:08:01;100996.91;;;21.05;61.67
64253;BME280;50592;52.958;-7.470;2022-07-11T10:10:28;100999.63;;;21.12;61.87
64253;BME280;50592;52.958;-7.470;2022-07-11T10:12:55;100996.75;;;21.27;61.74
64253;BME280;50592;52.958;-7.470;2022-07-11T10:15:31;100991.44;;;21.40;61.56
64253;BME280;50592;52.958;-7.470;2022-07-11T10:18:49;100985.84;;;21.42;61.78
64253;BME280;50592;52.958;-7.470;2022-07-11T10:21:11;100986.03;;;21.47;61.78
64253;BME280;50592;52.958;-7.470;2022-07-11T10:29:22;100981.72;;;21.53;61.73
64253;BME280;50592;52.958;-7.470;2022-07-11T10:32:10;100969.69;;;21.49;61.50
64253;BME280;50592;52.958;-7.470;2022-07-11T10:34:36;100969.28;;;21.38;62.47
64253;BME280;50592;52.958;-7.470;2022-07-11T10:37:03;100964.72;;;21.32;62.58
64253;BME280;50592;52.958;-7.470;2022-07-11T10:39:31;100965.34;;;21.41;62.34
64253;BME280;50592;52.958;-7.470;2022-07-11T10:41:59;100961.63;;;21.42;62.68
64253;BME280;50592;52.958;-7.470;2022-07-11T10:44:28;100963.91;;;21.38;62.51
64253;BME280;50592;52.958;-7.470;2022-07-11T10:47:32;100970.13;;;21.39;62.29
64253;BME280;50592;52.958;-7.470;2022-07-11T10:50:06;100964.34;;;21.42;62.18
64253;BME280;50592;52.958;-7.470;2022-07-11T10:52:34;100963.50;;;21.48;61.87
64253;BME280;50592;52.958;-7.470;2022-07-11T10:55:39;100959.38;;;21.59;61.36
64253;BME280;50592;52.958;-7.470;2022-07-11T10:58:18;100957.31;;;21.75;60.39
64253;BME280;50592;52.958;-7.470;2022-07-11T11:00:45;100965.41;;;21.95;61.28
64253;BME280;50592;52.958;-7.470;2022-07-11T11:03:11;100962.91;;;22.14;60.23
64253;BME280;50592;52.958;-7.470;2022-07-11T11:10:59;100945.94;;;22.06;59.14
64253;BME280;50592;52.958;-7.470;2022-07-11T11:13:26;100942.44;;;21.99;58.43
64253;BME280;50592;52.958;-7.470;2022-07-11T11:16:00;100941.41;;;22.00;58.65
64253;BME280;50592;52.958;-7.470;2022-07-11T11:18:33;100941.81;;;22.04;59.19
64253;BME280;50592;52.958;-7.470;2022-07-11T11:23:30;100953.34;;;22.31;59.33
64253;BME280;50592;52.958;-7.470;2022-07-11T11:26:07;100935.47;;;22.64;59.44
64253;BME280;50592;52.958;-7.470;2022-07-11T11:28:33;100935.19;;;22.86;58.19
64253;BME280;50592;52.958;-7.470;2022-07-11T11:31:02;100933.63;;;23.04;58.11
64253;BME280;50592;52.958;-7.470;2022-07-11T11:33:30;100934.47;;;23.04;57.29
64253;BME280;50592;52.958;-7.470;2022-07-11T11:36:03;100930.34;;;22.95;57.29
64253;BME280;50592;52.958;-7.470;2022-07-11T11:38:33;100923.75;;;22.91;57.28
64253;BME280;50592;52.958;-7.470;2022-07-11T11:40:59;100937.25;;;22.84;57.32
64253;BME280;50592;52.958;-7.470;2022-07-11T11:43:25;100922.59;;;22.73;57.42
64253;BME280;50592;52.958;-7.470;2022-07-11T11:45:53;100921.59;;;22.67;57.26
64253;BME280;50592;52.958;-7.470;2022-07-11T11:48:29;100921.16;;;22.57;56.98
64253;BME280;50592;52.958;-7.470;2022-07-11T11:51:08;100913.34;;;22.49;57.21
64253;BME280;50592;52.958;-7.470;2022-07-11T11:53:43;100904.84;;;22.45;57.41
64253;BME280;50592;52.958;-7.470;2022-07-11T11:59:10;100901.53;;;22.50;57.93
64253;BME280;50592;52.958;-7.470;2022-07-11T12:01:40;100899.03;;;22.55;58.36
64253;BME280;50592;52.958;-7.470;2022-07-11T12:04:11;100897.69;;;22.78;58.48
64253;BME280;50592;52.958;-7.470;2022-07-11T12:06:47;100886.69;;;23.19;57.78
64253;BME280;50592;52.958;-7.470;2022-07-11T12:09:17;100884.63;;;23.46;56.93
64253;BME280;50592;52.958;-7.470;2022-07-11T12:11:49;100879.41;;;23.51;56.77
64253;BME280;50592;52.958;-7.470;2022-07-11T12:14:37;100880.38;;;23.57;57.33
64253;BME280;50592;52.958;-7.470;2022-07-11T12:17:04;100882.25;;;23.57;57.34
64253;BME280;50592;52.958;-7.470;2022-07-11T12:19:34;100885.00;;;23.50;56.88
64253;BME280;50592;52.958;-7.470;2022-07-11T12:22:04;100889.88;;;23.34;56.13
64253;BME280;50592;52.958;-7.470;2022-07-11T12:24:30;100892.44;;;23.22;56.61
64253;BME280;50592;52.958;-7.470;2022-07-11T12:26:57;100892.22;;;23.24;56.75
64253;BME280;50592;52.958;-7.470;2022-07-11T12:29:24;100872.91;;;23.27;56.11
64253;BME280;50592;52.958;-7.470;2022-07-11T12:31:58;100879.09;;;23.34;55.17
64253;BME280;50592;52.958;-7.470;2022-07-11T12:34:42;100882.59;;;23.41;54.89
64253;BME280;50592;52.958;-7.470;2022-07-11T12:37:10;100887.66;;;23.57;56.03
64253;BME280;50592;52.958;-7.470;2022-07-11T12:39:46;100896.63;;;23.76;55.44
64253;BME280;50592;52.958;-7.470;2022-07-11T12:42:25;100893.72;;;23.96;55.09
64253;BME280;50592;52.958;-7.470;2022-07-11T12:45:10;100896.47;;;24.15;54.07
64253;BME280;50592;52.958;-7.470;2022-07-11T12:47:40;100889.25;;;24.27;54.11
64253;BME280;50592;52.958;-7.470;2022-07-11T12:50:17;100880.84;;;24.36;53.28
64253;BME280;50592;52.958;-7.470;2022-07-11T12:52:45;100874.63;;;24.35;53.37
64253;BME280;50592;52.958;-7.470;2022-07-11T12:58:09;100878.91;;;24.43;50.96
64253;BME280;50592;52.958;-7.470;2022-07-11T13:00:37;100885.19;;;24.37;52.19
64253;BME280;50592;52.958;-7.470;2022-07-11T13:03:07;100885.31;;;24.30;51.26
64253;BME280;50592;52.958;-7.470;2022-07-11T13:06:03;100885.44;;;24.16;50.58
64253;BME280;50592;52.958;-7.470;2022-07-11T13:08:36;100884.72;;;24.02;50.39
64253;BME280;50592;52.958;-7.470;2022-07-11T13:11:15;100884.00;;;23.95;49.43